Time;durP1;ratioP1;P1;durP2;ratioP2;P2;SDS_P1;SDS_P2;PMS_P1;PMS_P2;Temp;Humidity;BMP_temperature;BMP_pressure;BME280_temperature;BME280_humidity;BME280_pressure;Samples;Min_cycle;Max_cycle;Signal;HPM_P1;HPM_P2
2023/03/06 07:01:12;;;;;;;38.90;23.20;;;;;;;-145.79;80.23;78365.16;5280095;28;20395;-68
2023/03/06 07:03:43;;;;;;;33.10;23.42;;;;;;;-145.79;81.91;78360.91;5279400;28;20035;-69
2023/03/06 07:06:15;;;;;;;33.55;23.20;;;;;;;-145.79;82.24;78356.66;5280361;28;20043;-68
2023/03/06 07:08:46;;;;;;;35.42;24.40;;;;;;;-145.79;82.14;78354.53;5274004;28;20102;-68
2023/03/06 07:11:18;;;;;;;36.35;24.08;;;;;;;-145.79;82.08;78354.53;5258416;28;20041;-68
2023/03/06 07:13:49;;;;;;;35.42;24.60;;;;;;;-145.79;82.02;78354.53;5272197;28;20013;-68
2023/03/06 07:16:21;;;;;;;35.60;24.58;;;;;;;-145.79;82.01;78358.78;5270433;28;20174;-69
2023/03/06 07:18:52;;;;;;;32.47;24.30;;;;;;;-145.79;82.34;78356.66;5258405;28;20461;-69
2023/03/06 07:21:23;;;;;;;35.42;24.77;;;;;;;-145.79;82.40;78354.53;5262693;28;20029;-69
2023/03/06 07:23:56;;;;;;;34.85;23.85;;;;;;;-145.79;82.51;78343.94;5259010;28;20033;-69
2023/03/06 07:26:27;;;;;;;33.00;23.42;;;;;;;-145.79;82.65;78341.81;5258282;28;20052;-68
2023/03/06 07:28:59;;;;;;;36.58;24.38;;;;;;;-145.79;82.83;78339.69;5258641;28;20051;-69
2023/03/06 07:31:30;;;;;;;36.45;25.45;;;;;;;-145.79;83.01;78326.97;5255073;28;20449;-69
2023/03/06 07:34:01;;;;;;;32.17;22.55;;;;;;;-145.79;82.85;78310.03;5237947;28;20022;-68
2023/03/06 07:36:33;;;;;;;33.88;23.88;;;;;;;-145.79;82.62;78314.25;5238016;28;20025;-68
2023/03/06 07:39:08;;;;;;;32.15;23.38;;;;;;;-145.79;82.47;78290.94;5242301;28;20025;-68
2023/03/06 07:41:39;;;;;;;35.45;25.92;;;;;;;-145.79;82.13;78310.03;5258721;28;20188;-69
2023/03/06 07:44:10;;;;;;;35.58;25.48;;;;;;;-145.79;82.69;78307.91;5258652;28;20123;-71
2023/03/06 07:46:42;;;;;;;35.13;24.77;;;;;;;-145.79;82.96;78301.53;5258104;28;20533;-69
2023/03/06 07:49:13;;;;;;;36.75;25.25;;;;;;;-145.79;83.42;78295.19;5249176;28;20033;-67
2023/03/06 07:51:45;;;;;;;34.38;24.15;;;;;;;-145.79;83.08;78286.69;5237595;28;20021;-69
2023/03/06 07:54:16;;;;;;;38.30;27.08;;;;;;;-145.79;82.71;78301.53;5237105;28;20096;-69
2023/03/06 07:56:51;;;;;;;37.95;25.80;;;;;;;-145.79;83.73;78290.94;5264799;28;20109;-68
2023/03/06 07:59:25;;;;;;;36.47;25.07;;;;;;;-145.79;83.52;78288.81;5256933;28;20045;-68
2023/03/06 08:01:56;;;;;;;34.28;25.48;;;;;;;-145.79;83.17;78284.56;5258291;28;20049;-69
2023/03/06 08:04:30;;;;;;;35.83;26.27;;;;;;;-145.79;83.52;78280.34;5258267;28;20045;-69
2023/03/06 08:07:02;;;;;;;38.08;25.30;;;;;;;-145.79;83.44;78278.22;5241596;28;20049;-69
2023/03/06 08:09:34;;;;;;;35.03;24.27;;;;;;;-145.79;83.62;78295.19;5237389;28;20076;-68
2023/03/06 08:12:06;;;;;;;35.42;24.83;;;;;;;-145.79;83.71;78293.06;5226261;28;20025;-68
2023/03/06 08:14:37;;;;;;;34.15;24.50;;;;;;;-145.79;83.73;78288.81;5229001;28;20024;-70
2023/03/06 08:17:08;;;;;;;33.58;24.25;;;;;;;-145.79;83.89;78286.69;5244159;28;20060;-69
2023/03/06 08:19:40;;;;;;;37.75;24.67;;;;;;;-145.79;83.88;78271.84;5244161;28;20491;-68
2023/03/06 08:22:12;;;;;;;33.45;23.65;;;;;;;-145.79;83.58;78269.75;5242470;28;20112;-69
2023/03/06 08:24:44;;;;;;;34.08;24.13;;;;;;;-145.79;83.54;78301.53;5223349;28;20373;-69
2023/03/06 08:27:15;;;;;;;31.65;22.85;;;;;;;-145.79;84.01;78293.06;5223700;28;20022;-69
2023/03/06 08:29:46;;;;;;;36.63;24.63;;;;;;;-145.79;84.56;78265.50;5238816;28;20033;-69
2023/03/06 08:32:18;;;;;;;30.02;22.42;;;;;;;-145.79;84.08;78257.03;5247370;28;20036;-71
2023/03/06 08:34:49;;;;;;;32.67;22.23;;;;;;;-145.79;83.45;78252.78;5242813;28;20457;-71
2023/03/06 08:37:21;;;;;;;29.75;21.13;;;;;;;-145.79;83.03;78254.91;5243545;28;20148;-69
2023/03/06 08:39:52;;;;;;;30.70;22.05;;;;;;;-145.79;83.55;78242.19;5236480;28;20030;-69
2023/03/06 08:42:23;;;;;;;27.88;20.30;;;;;;;-145.79;83.92;78231.56;5222255;28;20481;-69
2023/03/06 08:44:55;;;;;;;29.48;21.95;;;;;;;-145.79;83.73;78242.19;5260925;28;20480;-69
2023/03/06 08:47:26;;;;;;;28.90;21.08;;;;;;;-145.79;83.68;78225.22;5264570;28;20025;-69
2023/03/06 08:49:57;;;;;;;28.88;20.27;;;;;;;-145.79;83.49;78227.34;5243008;28;20040;-69
2023/03/06 08:52:31;;;;;;;28.25;21.45;;;;;;;-145.79;82.86;78237.94;5243673;28;20499;-69
2023/03/06 08:55:03;;;;;;;30.15;20.92;;;;;;;-145.79;83.78;78244.28;5243507;28;20109;-69
2023/03/06 08:57:34;;;;;;;29.00;21.70;;;;;;;-145.79;84.68;78225.22;5230107;28;20144;-69
2023/03/06 09:00:15;;;;;;;29.83;21.40;;;;;;;-145.79;84.49;78216.72;5235067;28;20036;-69
2023/03/06 09:02:46;;;;;;;24.42;19.20;;;;;;;-145.79;83.66;78218.84;5263521;28;20626;-69
2023/03/06 09:05:18;;;;;;;31.90;20.45;;;;;;;-145.79;83.94;78212.50;5264024;28;20112;-69
2023/03/06 09:07:52;;;;;;;27.60;21.50;;;;;;;-145.79;84.55;78197.66;5254488;28;20087;-72
2023/03/06 09:10:24;;;;;;;27.63;20.48;;;;;;;-145.79;84.18;78176.47;5245985;28;20053;-69
2023/03/06 09:12:55;;;;;;;60.97;44.63;;;;;;;-145.79;83.68;78170.09;5243042;28;20104;-69
2023/03/06 09:15:27;;;;;;;26.63;21.50;;;;;;;-145.79;82.73;78167.97;5235776;28;20120;-68
2023/03/06 09:17:58;;;;;;;27.15;20.20;;;;;;;-145.79;82.91;78157.38;5242289;28;20112;-69
2023/03/06 09:20:30;;;;;;;27.40;20.20;;;;;;;-145.79;83.36;78142.53;5242872;28;20113;-68
2023/03/06 09:23:04;;;;;;;25.50;19.65;;;;;;;-145.79;82.75;78144.66;5242023;28;20017;-69
2023/03/06 09:25:35;;;;;;;25.88;18.10;;;;;;;-145.79;82.06;78138.28;5259760;28;20120;-69
2023/03/06 09:28:07;;;;;;;25.33;19.50;;;;;;;-145.79;81.61;78155.25;5257598;28;20105;-69
2023/03/06 09:30:39;;;;;;;27.48;19.58;;;;;;;-145.79;81.95;78161.63;5237285;28;20029;-70
2023/03/06 09:33:11;;;;;;;23.80;19.17;;;;;;;-145.79;82.88;78144.66;5223622;28;20078;-69
2023/03/06 09:35:49;;;;;;;25.33;19.63;;;;;;;-145.79;82.96;78129.81;5242709;28;20017;-69
2023/03/06 09:38:26;;;;;;;26.13;20.75;;;;;;;-145.79;82.03;78129.81;5241785;28;20036;-70
2023/03/06 09:40:58;;;;;;;26.88;20.75;;;;;;;-145.79;81.13;78144.66;5242208;28;20025;-69
2023/03/06 09:43:36;;;;;;;27.98;19.92;;;;;;;-145.79;81.59;78123.44;5242012;28;20026;-70
2023/03/06 09:46:35;;;;;;;27.05;19.85;;;;;;;-145.79;81.72;78112.84;5241112;28;20105;-70
2023/03/06 09:49:40;;;;;;;26.17;19.45;;;;;;;-145.79;81.47;78110.72;5225760;28;20034;-69
2023/03/06 09:52:32;;;;;;;25.42;20.05;;;;;;;-145.79;81.54;78098.00;5227383;28;20104;-69
2023/03/06 09:55:26;;;;;;;26.98;20.15;;;;;;;-145.79;80.35;78121.34;5262627;28;20082;-69
2023/03/06 09:58:23;;;;;;;24.27;18.23;;;;;;;-145.79;80.51;78123.44;5262969;28;20071;-69
2023/03/06 10:01:00;;;;;;;18.60;14.02;;;;;;;-145.79;85.12;78045.00;5261786;28;20056;-72
2023/03/06 10:03:56;;;;;;;20.02;16.38;;;;;;;-145.79;83.65;78021.69;5250521;28;20021;-74
2023/03/06 10:06:38;;;;;;;18.77;16.48;;;;;;;-145.79;79.59;78034.41;5236847;28;20037;-75
2023/03/06 10:09:15;;;;;;;21.83;16.88;;;;;;;-145.79;78.89;78034.41;5242338;28;20037;-77
2023/03/06 10:11:53;;;;;;;14.65;12.40;;;;;;;-145.79;76.73;78030.19;5242617;28;20083;-74
2023/03/06 10:14:42;;;;;;;18.90;12.18;;;;;;;-145.79;78.91;77981.41;5251082;28;20481;-75
2023/03/06 10:17:20;;;;;;;13.68;9.63;;;;;;;-145.79;76.05;77966.56;5231599;28;20053;-74
2023/03/06 10:19:52;;;;;;;15.93;12.60;;;;;;;-145.79;74.33;78002.63;5241381;28;20469;-73
2023/03/06 10:22:29;;;;;;;16.92;14.15;;;;;;;-145.79;74.50;78013.22;5231013;28;20030;-73
2023/03/06 10:25:46;;;;;;;17.20;14.50;;;;;;;-145.79;75.58;78015.34;5242619;28;20106;-74
2023/03/06 10:28:28;;;;;;;17.83;14.07;;;;;;;-145.79;76.99;78004.72;5215818;28;20067;-72
2023/03/06 10:31:31;;;;;;;21.38;15.32;;;;;;;-145.79;76.13;77996.25;5241685;28;20035;-72
2023/03/06 10:34:29;;;;;;;18.27;15.50;;;;;;;-145.79;77.81;77983.53;5255364;28;20045;-72
2023/03/06 10:37:15;;;;;;;19.67;16.40;;;;;;;-145.79;75.87;77979.28;5241141;28;20033;-72
2023/03/06 10:39:58;;;;;;;;;;;;;;;-145.79;76.20;77970.81;5246636;28;20032;-71
2023/03/06 10:42:30;;;;;;;21.67;16.65;;;;;;;-145.79;75.13;77985.66;5230127;28;19913;-72
2023/03/06 10:45:14;;;;;;;23.65;15.88;;;;;;;-145.79;74.70;77968.69;5241887;28;20104;-72
2023/03/06 10:47:45;;;;;;;20.00;15.43;;;;;;;-145.79;74.31;77970.81;5241595;28;20036;-71
2023/03/06 10:50:24;;;;;;;18.83;14.85;;;;;;;-145.79;73.61;77975.06;5260043;28;20021;-72
2023/03/06 10:53:04;;;;;;;18.45;14.77;;;;;;;-145.79;73.58;77996.25;5255062;28;20033;-71
2023/03/06 10:55:36;;;;;;;18.50;13.55;;;;;;;-145.79;73.62;77992.00;5239949;28;20049;-72
2023/03/06 10:58:28;;;;;;;18.23;13.77;;;;;;;-145.79;73.50;77998.38;5241156;28;20124;-72
2023/03/06 11:01:01;;;;;;;19.38;14.55;;;;;;;-145.79;73.63;77996.25;5241277;28;20046;-72
2023/03/06 11:03:34;;;;;;;16.23;12.63;;;;;;;-145.79;74.25;77992.00;5240206;28;20076;-70
2023/03/06 11:06:14;;;;;;;17.48;14.23;;;;;;;-145.79;72.58;77989.91;5241317;28;20488;-72
2023/03/06 11:08:46;;;;;;;13.35;11.95;;;;;;;-145.79;71.58;77972.94;5241048;28;20036;-72
2023/03/06 11:11:22;;;;;;;15.80;11.35;;;;;;;-145.79;71.42;77981.41;5240648;28;20029;-69
2023/03/06 11:13:58;;;;;;;14.25;11.98;;;;;;;-145.79;71.92;77979.28;5240475;28;20029;-71
2023/03/06 11:16:32;;;;;;;16.20;13.52;;;;;;;-145.79;72.08;77987.78;5240499;28;20030;-69
2023/03/06 11:19:05;;;;;;;16.08;13.13;;;;;;;-145.79;72.85;77996.25;5241067;28;20025;-70
2023/03/06 11:21:39;;;;;;;27.98;14.25;;;;;;;-145.79;72.40;78000.50;5241270;28;20024;-71
2023/03/06 11:24:18;;;;;;;18.63;13.52;;;;;;;-145.79;73.97;77968.69;5240397;28;20112;-73
2023/03/06 11:26:57;;;;;;;14.30;12.27;;;;;;;-145.79;72.88;77958.09;5241071;28;20079;-73
2023/03/06 11:29:42;;;;;;;14.65;11.48;;;;;;;-145.79;72.86;77930.53;5240143;28;20042;-74
2023/03/06 11:32:13;;;;;;;16.35;13.55;;;;;;;-145.79;71.02;77941.13;5240031;28;20369;-72
2023/03/06 11:34:53;;;;;;;13.52;11.00;;;;;;;-145.79;72.34;77902.97;5240746;28;20021;-73
2023/03/06 11:37:30;;;;;;;15.05;11.85;;;;;;;-145.79;70.72;77930.53;5240456;28;20464;-72
2023/03/06 11:40:19;;;;;;;15.95;12.30;;;;;;;-145.79;71.38;77932.66;5240960;28;20108;-74
2023/03/06 11:43:28;;;;;;;14.10;12.23;;;;;;;-145.79;73.34;77883.91;5240797;28;20029;-73
2023/03/06 11:46:10;;;;;;;18.15;12.85;;;;;;;-145.79;71.43;77898.75;5240771;28;20025;-74
2023/03/06 11:48:55;;;;;;;15.68;10.50;;;;;;;-145.79;70.73;77886.00;5240195;28;20033;-73
2023/03/06 11:51:31;;;;;;;9.00;8.07;;;;;;;-145.79;69.70;77890.25;5244254;28;20029;-73
2023/03/06 11:54:03;;;;;;;9.23;7.70;;;;;;;-145.79;70.04;77871.19;5244561;28;20021;-74
2023/03/06 11:57:05;;;;;;;13.48;7.30;;;;;;;-145.79;70.41;77862.69;5244583;28;20099;-74
2023/03/06 12:00:02;;;;;;;9.27;6.78;;;;;;;-145.79;68.46;77847.84;5243375;28;20133;-74
2023/03/06 12:02:42;;;;;;;7.45;6.38;;;;;;;-145.79;67.87;77845.75;5244586;28;20442;-73
2023/03/06 12:05:28;;;;;;;14.98;7.38;;;;;;;-145.79;70.13;77792.75;5229582;28;20079;-74
2023/03/06 12:08:26;;;;;;;8.50;7.50;;;;;;;-145.79;68.07;77801.22;5244357;28;20381;-73
2023/03/06 12:11:10;;;;;;;12.63;9.43;;;;;;;-145.79;68.01;77784.25;5244230;28;20121;-71
2023/03/06 12:14:14;;;;;;;12.88;9.85;;;;;;;-145.79;68.04;77760.94;5243384;28;20100;-74
2023/03/06 12:17:09;;;;;;;11.82;8.45;;;;;;;-145.79;67.85;77744.00;5244066;28;20017;-71
2023/03/06 12:19:50;;;;;;;12.20;9.38;;;;;;;-145.79;65.90;77767.31;5243111;28;20025;-76
2023/03/06 12:22:51;;;;;;;11.10;9.50;;;;;;;-145.79;65.38;77748.22;5225319;28;20052;-75
2023/03/06 12:25:24;;;;;;;12.93;9.45;;;;;;;-145.79;66.76;77722.78;5223725;28;20026;-75
2023/03/06 12:28:08;;;;;;;12.63;9.40;;;;;;;-145.79;67.49;77695.22;5223633;28;20029;-75
2023/03/06 12:30:54;;;;;;;15.05;11.10;;;;;;;-145.79;64.70;77724.91;5243822;28;20040;-77
2023/03/06 12:33:31;;;;;;;12.50;10.32;;;;;;;-145.79;64.98;77756.72;5244088;28;20029;-77
2023/03/06 12:36:40;;;;;;;12.43;9.60;;;;;;;-145.79;66.25;77737.63;5243882;28;20101;-76
2023/03/06 12:39:29;;;;;;;12.35;10.63;;;;;;;-145.79;64.90;77754.59;5239961;28;20057;-76
2023/03/06 12:42:18;;;;;;;14.23;10.35;;;;;;;-145.79;64.68;77775.78;5242966;28;20417;-76
2023/03/06 12:45:13;;;;;;;13.55;11.10;;;;;;;-145.79;65.24;77765.19;5243403;28;20029;-75
2023/03/06 12:47:46;;;;;;;15.23;11.82;;;;;;;-145.79;67.11;77746.09;5242754;28;20029;-76
2023/03/06 12:50:25;;;;;;;14.25;12.40;;;;;;;-145.79;65.49;77769.44;5243574;28;20029;-74
2023/03/06 12:53:01;;;;;;;13.52;11.88;;;;;;;-145.79;66.23;77748.22;5243290;28;20025;-75
2023/03/06 12:56:00;;;;;;;12.07;10.77;;;;;;;-145.79;66.83;77729.16;5237356;28;20028;-74
2023/03/06 12:58:46;;;;;;;8.65;7.65;;;;;;;-145.79;66.30;77782.16;5241967;28;20041;-74
2023/03/06 13:01:18;;;;;;;;;;;;;;;-145.79;66.01;77767.31;5243683;28;20064;-75
2023/03/06 13:04:37;;;;;;;8.15;5.90;;;;;;;-145.79;66.29;77809.69;5242584;28;19913;-75
2023/03/06 13:07:40;;;;;;;9.40;7.10;;;;;;;-145.79;68.01;77788.50;5246492;28;20333;-75
2023/03/06 13:10:35;;;;;;;6.38;5.78;;;;;;;-145.79;67.85;77801.22;5262341;28;20057;-73
2023/03/06 13:13:43;;;;;;;7.72;6.22;;;;;;;-145.79;67.86;77773.66;5242726;28;20028;-73
2023/03/06 13:16:17;;;;;;;7.45;6.65;;;;;;;-145.79;66.42;77763.06;5227841;28;20495;-73
2023/03/06 13:18:53;;;;;;;6.90;5.22;;;;;;;-145.79;65.56;77771.53;5253797;28;20029;-74
2023/03/06 13:21:44;;;;;;;6.65;5.72;;;;;;;-145.79;65.86;77733.38;5249018;28;20013;-74
2023/03/06 13:24:21;;;;;;;7.32;5.53;;;;;;;-145.79;63.50;77731.28;5262308;28;20036;-74
2023/03/06 13:27:00;;;;;;;6.20;5.53;;;;;;;-145.79;63.70;77716.44;5251014;28;20025;-74
2023/03/06 13:29:34;;;;;;;7.70;5.90;;;;;;;-145.79;63.10;77724.91;5236064;28;20038;-74
2023/03/06 13:32:16;;;;;;;7.93;6.93;;;;;;;-145.79;62.61;77707.94;5234667;28;20037;-73
2023/03/06 13:34:48;;;;;;;8.90;6.70;;;;;;;-145.79;64.31;77671.91;5241114;28;20457;-73
2023/03/06 13:37:22;;;;;;;10.68;8.95;;;;;;;-145.79;62.95;77671.91;5240053;28;20029;-73
2023/03/06 13:39:53;;;;;;;8.73;7.07;;;;;;;-145.79;61.60;77661.31;5241355;28;20042;-72
2023/03/06 13:42:30;;;;;;;10.75;8.75;;;;;;;-145.79;62.30;77661.31;5241560;28;20029;-72
2023/03/06 13:45:06;;;;;;;14.32;12.07;;;;;;;-145.79;61.02;77657.06;5251502;28;20028;-73
2023/03/06 13:47:49;;;;;;;8.65;7.70;;;;;;;-145.79;60.02;77654.97;5242176;28;20033;-71
2023/03/06 13:50:33;;;;;;;7.97;6.90;;;;;;;-145.79;58.20;77686.75;5242173;28;20105;-73
2023/03/06 13:53:04;;;;;;;15.02;11.45;;;;;;;-145.79;59.40;77707.94;5254569;28;20032;-72
2023/03/06 13:55:49;;;;;;;11.05;9.57;;;;;;;-145.79;60.21;77703.72;5262627;28;20029;-72
2023/03/06 13:58:45;;;;;;;10.90;9.68;;;;;;;-145.79;60.23;77716.44;5256301;28;20030;-71
2023/03/06 14:01:54;;;;;;;15.45;10.50;;;;;;;-145.79;61.45;77703.72;5251029;28;20039;-73
2023/03/06 14:04:53;;;;;;;12.68;9.60;;;;;;;-145.79;62.26;77701.59;5223202;28;20139;-74
2023/03/06 14:07:38;;;;;;;12.40;9.80;;;;;;;-145.79;62.97;77716.44;5220957;28;20026;-74
2023/03/06 14:10:20;;;;;;;11.93;10.57;;;;;;;-145.79;63.17;77718.56;5220710;28;20029;-74
2023/03/06 14:13:11;;;;;;;13.55;9.77;;;;;;;-145.79;63.66;77705.84;5220322;28;20173;-74
2023/03/06 14:15:51;;;;;;;13.02;10.60;;;;;;;-145.79;63.65;77712.19;5236078;28;20107;-74
2023/03/06 14:18:28;;;;;;;13.63;11.13;;;;;;;-145.79;63.58;77691.00;5262422;28;20047;-75
2023/03/06 14:21:03;;;;;;;14.63;11.98;;;;;;;-145.79;63.38;77676.16;5249784;28;20049;-74
2023/03/06 14:23:41;;;;;;;13.60;11.80;;;;;;;-145.79;62.88;77659.19;5249952;28;20100;-76
2023/03/06 14:26:18;;;;;;;13.35;11.85;;;;;;;-145.79;63.37;77650.72;5255105;28;20086;-75
2023/03/06 14:28:58;;;;;;;16.90;13.00;;;;;;;-145.79;63.73;77654.97;5253583;28;20539;-74
2023/03/06 14:31:32;;;;;;;15.85;13.88;;;;;;;-145.79;63.51;77648.59;5241381;28;20033;-74
2023/03/06 14:34:07;;;;;;;19.73;15.37;;;;;;;-145.79;63.46;77682.50;5261823;28;20025;-74
2023/03/06 14:36:48;;;;;;;16.63;14.80;;;;;;;-145.79;64.33;77669.78;5259721;28;20044;-74
2023/03/06 14:39:28;;;;;;;18.35;14.88;;;;;;;-145.79;64.82;77686.75;5262118;28;20032;-74
2023/03/06 14:42:18;;;;;;;17.65;15.85;;;;;;;-145.79;64.81;77659.19;5261075;28;20028;-74
2023/03/06 14:45:15;;;;;;;20.20;15.90;;;;;;;-145.79;65.35;77669.78;5262149;28;20468;-74
2023/03/06 14:47:51;;;;;;;18.95;16.83;;;;;;;-145.79;65.60;77686.75;5261473;28;20032;-74
2023/03/06 14:50:23;;;;;;;37.75;31.50;;;;;;;-145.79;66.93;77701.59;5261644;28;20100;-74
2023/03/06 14:53:16;;;;;;;21.25;18.42;;;;;;;-145.79;67.94;77686.75;5261407;28;20079;-74
2023/03/06 14:55:52;;;;;;;19.05;15.95;;;;;;;-145.79;67.36;77693.13;5219158;28;20034;-74
2023/03/06 14:58:35;;;;;;;21.20;18.05;;;;;;;-145.79;68.44;77712.19;5220335;28;20162;-73
2023/03/06 15:01:09;;;;;;;20.63;18.17;;;;;;;-145.79;68.98;77710.06;5219836;28;20088;-73
2023/03/06 15:03:44;;;;;;;24.73;18.27;;;;;;;-145.79;69.97;77703.72;5237108;28;20056;-74
2023/03/06 15:06:24;;;;;;;19.73;16.30;;;;;;;-145.79;70.53;77701.59;5237728;28;20037;-74
2023/03/06 15:09:03;;;;;;;20.23;17.02;;;;;;;-145.79;70.77;77697.34;5240128;28;20017;-74
2023/03/06 15:12:03;;;;;;;21.33;16.52;;;;;;;-145.79;69.73;77669.78;5239788;28;20033;-73
2023/03/06 15:14:46;;;;;;;19.48;17.45;;;;;;;-145.79;70.42;77661.31;5240766;28;20404;-73
2023/03/06 15:17:18;;;;;;;23.02;17.75;;;;;;;-145.79;70.13;77659.19;5240080;28;20120;-73
2023/03/06 15:19:53;;;;;;;19.15;16.42;;;;;;;-145.79;70.83;77661.31;5240829;28;20105;-72
2023/03/06 15:22:37;;;;;;;21.75;18.02;;;;;;;-145.79;71.18;77644.34;5243260;28;20025;-73
2023/03/06 15:25:15;;;;;;;25.67;19.13;;;;;;;-145.79;71.73;77623.16;5224042;28;20026;-73
2023/03/06 15:27:48;;;;;;;18.63;16.55;;;;;;;-145.79;69.44;77631.63;5232742;28;20431;-75
2023/03/06 15:30:31;;;;;;;19.85;17.50;;;;;;;-145.79;68.96;77625.28;5244366;28;20380;-74
2023/03/06 15:33:08;;;;;;;22.58;17.92;;;;;;;-145.79;69.90;77621.03;5244812;28;20028;-74
2023/03/06 15:36:16;;;;;;;22.30;19.58;;;;;;;-145.79;71.16;77610.44;5244223;28;20033;-74
2023/03/06 15:38:47;;;;;;;19.75;17.65;;;;;;;-145.79;70.63;77599.84;5242502;28;20041;-73
2023/03/06 15:41:36;;;;;;;20.10;17.75;;;;;;;-145.79;69.58;77591.38;5244192;28;20029;-74
2023/03/06 15:44:11;;;;;;;22.73;17.63;;;;;;;-145.79;68.81;77597.72;5243476;28;20035;-74
2023/03/06 15:46:42;;;;;;;20.08;17.23;;;;;;;-145.79;69.04;77589.25;5234031;28;20026;-73
2023/03/06 15:49:16;;;;;;;19.48;17.38;;;;;;;-145.79;69.45;77591.38;5244608;28;20539;-74
2023/03/06 15:51:48;;;;;;;20.02;17.77;;;;;;;-145.79;69.23;77585.00;5244038;28;20053;-73
2023/03/06 15:54:19;;;;;;;18.77;16.77;;;;;;;-145.79;68.38;77578.66;5244485;28;20127;-74
2023/03/06 15:56:51;;;;;;;20.85;18.63;;;;;;;-145.79;68.62;77576.53;5244402;28;20036;-70
2023/03/06 15:59:26;;;;;;;21.45;19.13;;;;;;;-145.79;68.44;77585.00;5258818;28;20111;-71
2023/03/06 16:02:10;;;;;;;24.88;18.05;;;;;;;-145.79;67.70;77572.28;5244588;28;20030;-71
2023/03/06 16:04:42;;;;;;;18.33;16.42;;;;;;;-145.79;67.17;77578.66;5241755;28;20030;-71
2023/03/06 16:07:13;;;;;;;20.08;17.92;;;;;;;-145.79;67.50;77585.00;5244127;28;20525;-70
2023/03/06 16:09:45;;;;;;;22.23;18.25;;;;;;;-145.79;67.79;77585.00;5243783;28;20017;-71
2023/03/06 16:12:19;;;;;;;19.77;17.20;;;;;;;-145.79;67.66;77580.75;5254115;28;20029;-70
2023/03/06 16:14:50;;;;;;;20.33;17.35;;;;;;;-145.79;67.69;77576.53;5264713;28;20090;-71
2023/03/06 16:17:21;;;;;;;17.90;16.02;;;;;;;-145.79;66.26;77585.00;5264252;28;20120;-70
2023/03/06 16:19:53;;;;;;;19.48;16.95;;;;;;;-145.79;64.59;77589.25;5255716;28;20101;-72
2023/03/06 16:22:24;;;;;;;19.27;14.95;;;;;;;-145.79;64.11;77582.88;5243972;28;20523;-72
2023/03/06 16:24:55;;;;;;;19.25;16.08;;;;;;;-145.79;62.05;77587.13;5243857;28;20030;-74
2023/03/06 16:27:27;;;;;;;18.33;16.35;;;;;;;-145.79;61.61;77576.53;5243320;28;20069;-73
2023/03/06 16:29:58;;;;;;;19.92;15.65;;;;;;;-145.79;61.46;77576.53;5244060;28;20101;-74
2023/03/06 16:32:29;;;;;;;21.15;16.80;;;;;;;-145.79;60.44;77580.75;5259598;28;20108;-74
